sensor_id;sensor_type;location;lat;lon;timestamp;pressure;altitude;pressure_sealevel;temperature;humidity
74921;BME280;63483;47.384;8.860;2022-09-20T00:01:10;94997.88;;;5.87;47.01
74921;BME280;63483;47.384;8.860;2022-09-20T00:03:38;94997.81;;;6.06;46.56
74921;BME280;63483;47.384;8.860;2022-09-20T00:06:05;95005.91;;;5.56;46.17
74921;BME280;63483;47.384;8.860;2022-09-20T00:08:31;94996.63;;;5.04;44.63
74921;BME280;63483;47.384;8.860;2022-09-20T00:11:01;95001.19;;;4.42;42.93
74921;BME280;63483;47.384;8.860;2022-09-20T00:13:27;95002.75;;;4.14;43.93
74921;BME280;63483;47.384;8.860;2022-09-20T00:15:52;95000.16;;;3.83;43.75
74921;BME280;63483;47.384;8.860;2022-09-20T00:18:18;95005.53;;;3.70;45.44
74921;BME280;63483;47.384;8.860;2022-09-20T00:20:47;95000.44;;;3.59;44.38
74921;BME280;63483;47.384;8.860;2022-09-20T00:23:13;94996.25;;;3.25;45.25
74921;BME280;63483;47.384;8.860;2022-09-20T00:25:39;94994.34;;;3.27;45.01
74921;BME280;63483;47.384;8.860;2022-09-20T00:28:05;94988.97;;;3.19;45.06
74921;BME280;63483;47.384;8.860;2022-09-20T00:30:32;94985.50;;;3.09;44.38
74921;BME280;63483;47.384;8.860;2022-09-20T00:32:58;94988.91;;;3.09;44.02
74921;BME280;63483;47.384;8.860;2022-09-20T00:35:23;94994.78;;;3.11;44.04
74921;BME280;63483;47.384;8.860;2022-09-20T00:37:49;94988.47;;;3.04;44.73
74921;BME280;63483;47.384;8.860;2022-09-20T00:40:17;94991.88;;;3.26;45.36
74921;BME280;63483;47.384;8.860;2022-09-20T00:42:44;94995.81;;;3.20;42.44
74921;BME280;63483;47.384;8.860;2022-09-20T00:45:20;94997.53;;;3.52;47.86
74921;BME280;63483;47.384;8.860;2022-09-20T00:48:02;94989.44;;;3.66;46.00
74921;BME280;63483;47.384;8.860;2022-09-20T00:50:43;94989.34;;;4.08;48.59
74921;BME280;63483;47.384;8.860;2022-09-20T00:53:20;94986.44;;;4.42;49.15
74921;BME280;63483;47.384;8.860;2022-09-20T00:55:55;94977.47;;;4.66;49.81
74921;BME280;63483;47.384;8.860;2022-09-20T00:58:23;94976.66;;;4.85;49.89
74921;BME280;63483;47.384;8.860;2022-09-20T01:00:50;94974.22;;;5.03;48.87
74921;BME280;63483;47.384;8.860;2022-09-20T01:03:19;94976.94;;;5.31;52.44
74921;BME280;63483;47.384;8.860;2022-09-20T01:05:48;94983.22;;;5.48;49.52
74921;BME280;63483;47.384;8.860;2022-09-20T01:08:14;94979.34;;;5.62;49.16
74921;BME280;63483;47.384;8.860;2022-09-20T01:10:41;94974.28;;;5.70;49.25
74921;BME280;63483;47.384;8.860;2022-09-20T01:13:07;94983.81;;;5.79;48.62
74921;BME280;63483;47.384;8.860;2022-09-20T01:15:33;94984.19;;;5.85;48.34
74921;BME280;63483;47.384;8.860;2022-09-20T01:18:01;94977.09;;;5.87;47.70
74921;BME280;63483;47.384;8.860;2022-09-20T01:20:32;94977.75;;;5.89;47.62
74921;BME280;63483;47.384;8.860;2022-09-20T01:23:21;94975.56;;;5.94;48.17
74921;BME280;63483;47.384;8.860;2022-09-20T01:28:43;94979.50;;;5.98;47.56
74921;BME280;63483;47.384;8.860;2022-09-20T01:31:20;94974.00;;;6.01;47.71
74921;BME280;63483;47.384;8.860;2022-09-20T01:33:56;94977.00;;;6.06;48.43
74921;BME280;63483;47.384;8.860;2022-09-20T01:36:25;94979.97;;;6.11;48.02
74921;BME280;63483;47.384;8.860;2022-09-20T01:42:09;94973.41;;;6.17;47.38
74921;BME280;63483;47.384;8.860;2022-09-20T01:44:52;94971.88;;;6.14;47.43
74921;BME280;63483;47.384;8.860;2022-09-20T01:47:38;94970.13;;;6.15;47.61
74921;BME280;63483;47.384;8.860;2022-09-20T01:50:11;94965.44;;;6.18;46.87
74921;BME280;63483;47.384;8.860;2022-09-20T01:52:55;94963.25;;;6.24;47.52
74921;BME280;63483;47.384;8.860;2022-09-20T01:55:53;94962.94;;;6.27;47.27
74921;BME280;63483;47.384;8.860;2022-09-20T02:04:12;94962.66;;;6.30;47.03
74921;BME280;63483;47.384;8.860;2022-09-20T02:06:58;94964.31;;;6.31;46.82
74921;BME280;63483;47.384;8.860;2022-09-20T02:20:43;94969.69;;;6.20;46.75
74921;BME280;63483;47.384;8.860;2022-09-20T02:26:10;94972.44;;;6.18;46.73
74921;BME280;63483;47.384;8.860;2022-09-20T02:28:52;94970.78;;;6.17;46.76
74921;BME280;63483;47.384;8.860;2022-09-20T02:40:25;94974.78;;;6.11;46.97
74921;BME280;63483;47.384;8.860;2022-09-20T02:43:15;94971.22;;;6.12;46.82
74921;BME280;63483;47.384;8.860;2022-09-20T02:48:28;94972.19;;;6.11;46.57
74921;BME280;63483;47.384;8.860;2022-09-20T02:51:04;94972.88;;;6.13;46.90
74921;BME280;63483;47.384;8.860;2022-09-20T02:53:46;94971.88;;;6.14;46.67
74921;BME280;63483;47.384;8.860;2022-09-20T02:58:58;94971.22;;;6.12;46.62
74921;BME280;63483;47.384;8.860;2022-09-20T03:01:46;94972.31;;;6.10;46.83
74921;BME280;63483;47.384;8.860;2022-09-20T03:04:50;94965.66;;;6.07;47.06
74921;BME280;63483;47.384;8.860;2022-09-20T03:07:45;94973.72;;;6.04;46.94
74921;BME280;63483;47.384;8.860;2022-09-20T03:10:22;94979.06;;;6.03;46.60
74921;BME280;63483;47.384;8.860;2022-09-20T03:24:42;94986.34;;;5.99;47.29
74921;BME280;63483;47.384;8.860;2022-09-20T03:27:27;94990.59;;;6.00;46.95
74921;BME280;63483;47.384;8.860;2022-09-20T03:38:11;94985.81;;;5.95;46.94
74921;BME280;63483;47.384;8.860;2022-09-20T03:40:55;94991.97;;;5.94;46.92
74921;BME280;63483;47.384;8.860;2022-09-20T03:51:34;94989.25;;;5.19;42.39
74921;BME280;63483;47.384;8.860;2022-09-20T04:05:15;94984.31;;;3.13;44.16
74921;BME280;63483;47.384;8.860;2022-09-20T04:13:37;94979.63;;;2.42;43.91
74921;BME280;63483;47.384;8.860;2022-09-20T04:18:52;94981.78;;;2.25;42.41
74921;BME280;63483;47.384;8.860;2022-09-20T04:21:59;94978.50;;;2.12;43.06
74921;BME280;63483;47.384;8.860;2022-09-20T04:27:16;94987.88;;;2.24;44.99
74921;BME280;63483;47.384;8.860;2022-09-20T04:29:57;94985.00;;;2.50;40.75
74921;BME280;63483;47.384;8.860;2022-09-20T04:32:26;94991.59;;;2.87;47.03
74921;BME280;63483;47.384;8.860;2022-09-20T04:37:47;94999.19;;;3.53;45.99
74921;BME280;63483;47.384;8.860;2022-09-20T04:45:50;94997.22;;;3.97;55.38
74921;BME280;63483;47.384;8.860;2022-09-20T05:10:47;95015.03;;;1.26;46.42
74921;BME280;63483;47.384;8.860;2022-09-20T05:13:38;95011.94;;;1.21;44.85
74921;BME280;63483;47.384;8.860;2022-09-20T05:16:26;95022.69;;;1.04;44.98
74921;BME280;63483;47.384;8.860;2022-09-20T05:22:05;95027.94;;;1.38;46.63
74921;BME280;63483;47.384;8.860;2022-09-20T05:27:36;95025.59;;;2.27;47.58
74921;BME280;63483;47.384;8.860;2022-09-20T05:30:20;95027.75;;;2.65;46.99
74921;BME280;63483;47.384;8.860;2022-09-20T05:41:08;95028.28;;;3.66;49.56
74921;BME280;63483;47.384;8.860;2022-09-20T05:43:46;95033.16;;;3.81;49.80
74921;BME280;63483;47.384;8.860;2022-09-20T05:46:22;95036.34;;;3.94;49.59
74921;BME280;63483;47.384;8.860;2022-09-20T05:49:03;95032.72;;;4.06;49.76
74921;BME280;63483;47.384;8.860;2022-09-20T05:57:10;95032.44;;;4.40;50.02
74921;BME280;63483;47.384;8.860;2022-09-20T06:08:02;95039.19;;;4.63;49.18
74921;BME280;63483;47.384;8.860;2022-09-20T06:10:42;95039.72;;;4.66;49.52
74921;BME280;63483;47.384;8.860;2022-09-20T06:16:03;95029.66;;;4.73;49.78
74921;BME280;63483;47.384;8.860;2022-09-20T06:18:33;95036.50;;;4.74;49.46
74921;BME280;63483;47.384;8.860;2022-09-20T06:23:34;95031.28;;;4.84;48.98
74921;BME280;63483;47.384;8.860;2022-09-20T06:26:09;95036.22;;;4.87;49.16
74921;BME280;63483;47.384;8.860;2022-09-20T06:28:41;95030.63;;;4.91;49.16
74921;BME280;63483;47.384;8.860;2022-09-20T06:31:09;95027.91;;;4.93;49.33
74921;BME280;63483;47.384;8.860;2022-09-20T06:33:56;95030.00;;;4.99;49.22
74921;BME280;63483;47.384;8.860;2022-09-20T06:36:29;95034.06;;;5.02;49.27
74921;BME280;63483;47.384;8.860;2022-09-20T06:39:38;95028.75;;;5.03;49.65
74921;BME280;63483;47.384;8.860;2022-09-20T06:42:24;95031.06;;;5.06;49.42
74921;BME280;63483;47.384;8.860;2022-09-20T06:44:50;95036.69;;;5.11;49.59
74921;BME280;63483;47.384;8.860;2022-09-20T06:47:15;95039.00;;;5.15;49.36
74921;BME280;63483;47.384;8.860;2022-09-20T06:49:41;95042.28;;;5.17;49.76
74921;BME280;63483;47.384;8.860;2022-09-20T06:52:16;95039.41;;;5.20;49.57
74921;BME280;63483;47.384;8.860;2022-09-20T06:54:43;95036.56;;;5.23;49.59
74921;BME280;63483;47.384;8.860;2022-09-20T06:57:11;95037.91;;;5.27;49.52
74921;BME280;63483;47.384;8.860;2022-09-20T06:59:38;95038.47;;;5.30;49.46
74921;BME280;63483;47.384;8.860;2022-09-20T07:02:04;95037.34;;;5.33;49.77
74921;BME280;63483;47.384;8.860;2022-09-20T07:04:29;95038.72;;;5.37;49.60
74921;BME280;63483;47.384;8.860;2022-09-20T07:07:02;95038.44;;;5.40;51.31
74921;BME280;63483;47.384;8.860;2022-09-20T07:09:28;95045.00;;;5.44;50.54
74921;BME280;63483;47.384;8.860;2022-09-20T07:11:53;95039.41;;;5.49;50.42
74921;BME280;63483;47.384;8.860;2022-09-20T07:14:21;95038.03;;;5.55;50.92
74921;BME280;63483;47.384;8.860;2022-09-20T07:16:47;95047.84;;;5.61;50.64
74921;BME280;63483;47.384;8.860;2022-09-20T07:19:12;95037.59;;;5.69;50.82
74921;BME280;63483;47.384;8.860;2022-09-20T07:21:37;95039.50;;;5.77;50.82
74921;BME280;63483;47.384;8.860;2022-09-20T07:24:03;95046.59;;;5.85;51.25
74921;BME280;63483;47.384;8.860;2022-09-20T07:26:29;95044.25;;;5.91;51.54
74921;BME280;63483;47.384;8.860;2022-09-20T07:28:56;95051.06;;;6.02;51.67
74921;BME280;63483;47.384;8.860;2022-09-20T07:31:24;95038.84;;;6.12;52.19
74921;BME280;63483;47.384;8.860;2022-09-20T07:33:50;95040.44;;;6.23;52.22
74921;BME280;63483;47.384;8.860;2022-09-20T07:36:15;95041.94;;;6.35;51.65
74921;BME280;63483;47.384;8.860;2022-09-20T07:38:41;95051.47;;;6.45;51.70
74921;BME280;63483;47.384;8.860;2022-09-20T07:41:08;95052.41;;;6.53;52.19
74921;BME280;63483;47.384;8.860;2022-09-20T07:43:34;95056.72;;;6.63;52.37
74921;BME280;63483;47.384;8.860;2022-09-20T07:45:59;95044.63;;;6.72;52.49
74921;BME280;63483;47.384;8.860;2022-09-20T07:48:30;95050.75;;;6.80;52.45
74921;BME280;63483;47.384;8.860;2022-09-20T07:50:58;95057.69;;;6.90;52.85
74921;BME280;63483;47.384;8.860;2022-09-20T07:53:26;95059.53;;;6.97;52.42
74921;BME280;63483;47.384;8.860;2022-09-20T07:58:21;95062.19;;;7.15;52.48
74921;BME280;63483;47.384;8.860;2022-09-20T08:00:51;95063.75;;;7.26;52.55
74921;BME280;63483;47.384;8.860;2022-09-20T08:03:16;95067.84;;;7.29;53.08
74921;BME280;63483;47.384;8.860;2022-09-20T08:05:42;95062.03;;;7.35;53.18
74921;BME280;63483;47.384;8.860;2022-09-20T08:08:07;95068.78;;;7.46;53.15
74921;BME280;63483;47.384;8.860;2022-09-20T08:10:33;95067.38;;;7.51;52.84
74921;BME280;63483;47.384;8.860;2022-09-20T08:12:58;95062.22;;;7.59;52.88
74921;BME280;63483;47.384;8.860;2022-09-20T08:15:24;95071.09;;;7.67;52.66
74921;BME280;63483;47.384;8.860;2022-09-20T08:17:50;95067.22;;;7.71;52.60
74921;BME280;63483;47.384;8.860;2022-09-20T08:20:15;95067.97;;;7.81;52.24
74921;BME280;63483;47.384;8.860;2022-09-20T08:22:40;95073.91;;;7.91;51.87
74921;BME280;63483;47.384;8.860;2022-09-20T08:25:07;95076.28;;;8.03;51.69
74921;BME280;63483;47.384;8.860;2022-09-20T08:27:32;95073.38;;;8.14;50.92
74921;BME280;63483;47.384;8.860;2022-09-20T08:29:58;95076.72;;;8.24;50.59
74921;BME280;63483;47.384;8.860;2022-09-20T08:32:25;95078.41;;;8.34;50.39
74921;BME280;63483;47.384;8.860;2022-09-20T08:34:54;95080.88;;;8.43;50.34
74921;BME280;63483;47.384;8.860;2022-09-20T08:37:19;95076.38;;;8.54;50.35
74921;BME280;63483;47.384;8.860;2022-09-20T08:39:45;95070.34;;;8.61;50.03
74921;BME280;63483;47.384;8.860;2022-09-20T08:42:26;95069.88;;;8.66;49.60
74921;BME280;63483;47.384;8.860;2022-09-20T08:44:58;95068.81;;;8.77;47.95
74921;BME280;63483;47.384;8.860;2022-09-20T08:47:56;95070.50;;;8.86;47.80
74921;BME280;63483;47.384;8.860;2022-09-20T08:50:22;95066.59;;;8.90;47.82
74921;BME280;63483;47.384;8.860;2022-09-20T08:52:51;95067.91;;;8.94;48.24
74921;BME280;63483;47.384;8.860;2022-09-20T08:55:24;95071.84;;;9.07;44.95
74921;BME280;63483;47.384;8.860;2022-09-20T08:57:54;95063.22;;;9.23;43.09
74921;BME280;63483;47.384;8.860;2022-09-20T09:00:23;95066.16;;;9.20;42.69
74921;BME280;63483;47.384;8.860;2022-09-20T09:02:53;95067.66;;;9.30;44.07
74921;BME280;63483;47.384;8.860;2022-09-20T09:05:31;95067.00;;;9.37;44.30
74921;BME280;63483;47.384;8.860;2022-09-20T09:07:59;95062.75;;;9.36;42.75
74921;BME280;63483;47.384;8.860;2022-09-20T09:10:37;95060.28;;;9.50;40.57
74921;BME280;63483;47.384;8.860;2022-09-20T09:13:04;95062.91;;;9.26;42.50
74921;BME280;63483;47.384;8.860;2022-09-20T09:15:33;95058.09;;;8.96;41.39
74921;BME280;63483;47.384;8.860;2022-09-20T09:17:59;95057.81;;;9.08;41.37
74921;BME280;63483;47.384;8.860;2022-09-20T09:20:25;95056.66;;;9.10;42.05
74921;BME280;63483;47.384;8.860;2022-09-20T09:23:03;95063.84;;;9.16;42.34
74921;BME280;63483;47.384;8.860;2022-09-20T09:25:31;95061.41;;;9.15;43.05
74921;BME280;63483;47.384;8.860;2022-09-20T09:30:33;95057.19;;;9.14;41.81
74921;BME280;63483;47.384;8.860;2022-09-20T09:33:30;95065.00;;;9.14;42.28
74921;BME280;63483;47.384;8.860;2022-09-20T09:36:12;95060.78;;;9.21;42.33
74921;BME280;63483;47.384;8.860;2022-09-20T09:38:44;95062.72;;;9.19;42.65
74921;BME280;63483;47.384;8.860;2022-09-20T09:43:57;95057.78;;;9.00;41.88
74921;BME280;63483;47.384;8.860;2022-09-20T09:46:30;95058.97;;;9.22;42.71
74921;BME280;63483;47.384;8.860;2022-09-20T09:49:13;95058.16;;;9.29;42.55
74921;BME280;63483;47.384;8.860;2022-09-20T09:51:40;95057.84;;;9.41;44.35
74921;BME280;63483;47.384;8.860;2022-09-20T09:54:15;95061.78;;;9.53;43.26
74921;BME280;63483;47.384;8.860;2022-09-20T09:59:53;95055.56;;;9.62;41.24
74921;BME280;63483;47.384;8.860;2022-09-20T10:05:02;95052.63;;;9.90;42.30
74921;BME280;63483;47.384;8.860;2022-09-20T10:18:24;95043.78;;;9.83;40.71
74921;BME280;63483;47.384;8.860;2022-09-20T10:20:55;95055.09;;;9.83;40.21
74921;BME280;63483;47.384;8.860;2022-09-20T10:24:40;95035.75;;;10.09;37.98
74921;BME280;63483;47.384;8.860;2022-09-20T10:29:18;95039.06;;;9.95;41.38
74921;BME280;63483;47.384;8.860;2022-09-20T10:32:04;95045.59;;;9.58;42.75
74921;BME280;63483;47.384;8.860;2022-09-20T10:42:48;95043.16;;;9.40;43.51
74921;BME280;63483;47.384;8.860;2022-09-20T10:46:01;95040.19;;;9.18;44.22
74921;BME280;63483;47.384;8.860;2022-09-20T10:49:03;95041.97;;;9.09;44.37
74921;BME280;63483;47.384;8.860;2022-09-20T11:00:45;95036.94;;;9.98;41.55
74921;BME280;63483;47.384;8.860;2022-09-20T11:09:07;95034.88;;;10.33;39.93
74921;BME280;63483;47.384;8.860;2022-09-20T11:11:40;95033.94;;;10.26;38.84
74921;BME280;63483;47.384;8.860;2022-09-20T11:14:12;95034.44;;;10.61;38.33
74921;BME280;63483;47.384;8.860;2022-09-20T11:16:44;95039.69;;;10.61;39.53
74921;BME280;63483;47.384;8.860;2022-09-20T11:19:28;95039.66;;;10.69;38.96
74921;BME280;63483;47.384;8.860;2022-09-20T11:22:06;95033.94;;;11.05;37.19
74921;BME280;63483;47.384;8.860;2022-09-20T11:24:37;95028.34;;;11.08;35.88
74921;BME280;63483;47.384;8.860;2022-09-20T11:27:15;95028.06;;;11.26;37.52
74921;BME280;63483;47.384;8.860;2022-09-20T11:29:50;95029.13;;;11.40;37.19
74921;BME280;63483;47.384;8.860;2022-09-20T11:32:23;95033.94;;;11.52;35.76
74921;BME280;63483;47.384;8.860;2022-09-20T11:34:58;95025.19;;;11.59;35.71
74921;BME280;63483;47.384;8.860;2022-09-20T11:37:30;95023.41;;;11.75;36.65
74921;BME280;63483;47.384;8.860;2022-09-20T11:40:00;95026.84;;;11.37;36.21
74921;BME280;63483;47.384;8.860;2022-09-20T11:42:33;95020.63;;;11.53;35.81
74921;BME280;63483;47.384;8.860;2022-09-20T11:45:00;95025.59;;;11.71;35.65
74921;BME280;63483;47.384;8.860;2022-09-20T11:47:32;95026.09;;;11.90;36.42
74921;BME280;63483;47.384;8.860;2022-09-20T11:58:04;95022.31;;;11.69;34.98
74921;BME280;63483;47.384;8.860;2022-09-20T12:00:37;95031.06;;;11.38;36.34
74921;BME280;63483;47.384;8.860;2022-09-20T12:03:20;95033.72;;;11.15;35.24
74921;BME280;63483;47.384;8.860;2022-09-20T12:05:46;95023.91;;;11.32;34.83
74921;BME280;63483;47.384;8.860;2022-09-20T12:08:32;95024.50;;;11.42;35.65
74921;BME280;63483;47.384;8.860;2022-09-20T12:11:02;95020.91;;;11.43;37.04
74921;BME280;63483;47.384;8.860;2022-09-20T12:13:30;95024.56;;;11.72;36.92
74921;BME280;63483;47.384;8.860;2022-09-20T12:21:08;95011.81;;;12.07;36.18
74921;BME280;63483;47.384;8.860;2022-09-20T12:36:32;95013.47;;;12.23;33.53
74921;BME280;63483;47.384;8.860;2022-09-20T12:39:14;95021.03;;;12.03;33.29
74921;BME280;63483;47.384;8.860;2022-09-20T12:41:55;95012.13;;;11.74;33.10
74921;BME280;63483;47.384;8.860;2022-09-20T12:45:14;95016.28;;;11.84;33.95
74921;BME280;63483;47.384;8.860;2022-09-20T12:47:50;95011.03;;;11.84;33.13
74921;BME280;63483;47.384;8.860;2022-09-20T12:50:19;95008.63;;;11.59;34.28
74921;BME280;63483;47.384;8.860;2022-09-20T12:53:11;95008.84;;;11.72;34.02
74921;BME280;63483;47.384;8.860;2022-09-20T12:55:53;95015.16;;;11.86;34.60
74921;BME280;63483;47.384;8.860;2022-09-20T12:58:35;95012.06;;;11.98;33.94
74921;BME280;63483;47.384;8.860;2022-09-20T13:03:34;94996.25;;;12.21;33.66
74921;BME280;63483;47.384;8.860;2022-09-20T13:08:30;95002.47;;;12.49;33.78
74921;BME280;63483;47.384;8.860;2022-09-20T13:11:09;94990.03;;;12.73;36.06
74921;BME280;63483;47.384;8.860;2022-09-20T13:13:48;94994.94;;;12.76;33.05
74921;BME280;63483;47.384;8.860;2022-09-20T13:19:04;94994.03;;;12.69;33.49
74921;BME280;63483;47.384;8.860;2022-09-20T13:21:37;94984.06;;;12.79;33.20
74921;BME280;63483;47.384;8.860;2022-09-20T13:24:04;94983.16;;;12.72;33.35
74921;BME280;63483;47.384;8.860;2022-09-20T13:26:39;94980.56;;;12.94;31.26
74921;BME280;63483;47.384;8.860;2022-09-20T13:29:07;94982.44;;;12.78;29.84
74921;BME280;63483;47.384;8.860;2022-09-20T13:31:34;94986.72;;;12.64;29.88
74921;BME280;63483;47.384;8.860;2022-09-20T13:34:32;94985.88;;;12.64;31.15
74921;BME280;63483;47.384;8.860;2022-09-20T13:36:58;94991.38;;;12.18;32.13
74921;BME280;63483;47.384;8.860;2022-09-20T13:39:31;94986.72;;;12.20;34.26
74921;BME280;63483;47.384;8.860;2022-09-20T13:42:04;94985.94;;;12.04;34.80
74921;BME280;63483;47.384;8.860;2022-09-20T13:44:31;94984.28;;;12.03;35.50
74921;BME280;63483;47.384;8.860;2022-09-20T13:46:59;94981.81;;;12.46;33.91
74921;BME280;63483;47.384;8.860;2022-09-20T13:49:29;94982.31;;;12.35;34.26
74921;BME280;63483;47.384;8.860;2022-09-20T13:51:55;94983.38;;;12.56;34.46
74921;BME280;63483;47.384;8.860;2022-09-20T13:54:29;94988.28;;;12.29;35.70
74921;BME280;63483;47.384;8.860;2022-09-20T13:57:05;94988.19;;;12.37;34.47
74921;BME280;63483;47.384;8.860;2022-09-20T13:59:45;94989.28;;;12.13;34.19
74921;BME280;63483;47.384;8.860;2022-09-20T14:04:46;94989.34;;;12.20;35.84
74921;BME280;63483;47.384;8.860;2022-09-20T14:07:15;94982.84;;;12.01;34.77
74921;BME280;63483;47.384;8.860;2022-09-20T14:09:41;94988.00;;;12.09;34.69
74921;BME280;63483;47.384;8.860;2022-09-20T14:12:07;94991.25;;;11.96;35.33
74921;BME280;63483;47.384;8.860;2022-09-20T14:14:34;94977.59;;;12.16;35.06
74921;BME280;63483;47.384;8.860;2022-09-20T14:17:04;94988.97;;;12.38;33.43
74921;BME280;63483;47.384;8.860;2022-09-20T14:19:32;94987.19;;;12.38;34.51
74921;BME280;63483;47.384;8.860;2022-09-20T14:22:04;94978.50;;;12.23;34.17
74921;BME280;63483;47.384;8.860;2022-09-20T14:24:36;94995.78;;;12.47;34.21
74921;BME280;63483;47.384;8.860;2022-09-20T14:27:15;94988.81;;;12.54;34.15
74921;BME280;63483;47.384;8.860;2022-09-20T14:29:51;94978.19;;;12.62;33.87
74921;BME280;63483;47.384;8.860;2022-09-20T14:32:25;94982.97;;;12.74;33.09
74921;BME280;63483;47.384;8.860;2022-09-20T14:35:13;94988.25;;;12.59;33.29
74921;BME280;63483;47.384;8.860;2022-09-20T14:37:42;94989.63;;;12.55;33.44
74921;BME280;63483;47.384;8.860;2022-09-20T14:40:25;94997.03;;;12.51;33.40
74921;BME280;63483;47.384;8.860;2022-09-20T14:45:23;94981.63;;;12.78;33.07
74921;BME280;63483;47.384;8.860;2022-09-20T14:47:56;94990.88;;;12.59;32.67
74921;BME280;63483;47.384;8.860;2022-09-20T14:50:28;94982.16;;;12.58;33.18
74921;BME280;63483;47.384;8.860;2022-09-20T14:58:18;94987.34;;;12.52;34.09
74921;BME280;63483;47.384;8.860;2022-09-20T15:01:21;94986.63;;;12.58;33.12
74921;BME280;63483;47.384;8.860;2022-09-20T15:03:48;94989.53;;;12.33;33.03
74921;BME280;63483;47.384;8.860;2022-09-20T15:06:14;94996.06;;;12.37;33.17
74921;BME280;63483;47.384;8.860;2022-09-20T15:08:40;94997.88;;;12.52;32.35
74921;BME280;63483;47.384;8.860;2022-09-20T15:11:10;94992.06;;;12.41;32.85
74921;BME280;63483;47.384;8.860;2022-09-20T15:13:35;94990.00;;;12.37;33.35
74921;BME280;63483;47.384;8.860;2022-09-20T15:16:01;94999.06;;;12.34;33.07
74921;BME280;63483;47.384;8.860;2022-09-20T15:18:39;94998.44;;;12.32;32.73
74921;BME280;63483;47.384;8.860;2022-09-20T15:21:05;94993.53;;;12.29;33.79
74921;BME280;63483;47.384;8.860;2022-09-20T15:23:30;95004.66;;;12.01;33.94
74921;BME280;63483;47.384;8.860;2022-09-20T15:25:56;94989.91;;;12.15;34.12
74921;BME280;63483;47.384;8.860;2022-09-20T15:28:21;94993.88;;;12.11;34.80
74921;BME280;63483;47.384;8.860;2022-09-20T15:30:49;95002.84;;;12.17;34.95
74921;BME280;63483;47.384;8.860;2022-09-20T15:33:15;95005.59;;;12.23;35.27
74921;BME280;63483;47.384;8.860;2022-09-20T15:35:41;95005.28;;;12.03;35.40
74921;BME280;63483;47.384;8.860;2022-09-20T15:38:08;95007.84;;;12.11;35.41
74921;BME280;63483;47.384;8.860;2022-09-20T15:40:39;95000.69;;;12.05;35.70
74921;BME280;63483;47.384;8.860;2022-09-20T15:43:06;95005.03;;;11.98;35.88
74921;BME280;63483;47.384;8.860;2022-09-20T15:45:33;95006.38;;;11.94;36.78
74921;BME280;63483;47.384;8.860;2022-09-20T15:47:59;95009.44;;;12.12;36.34
74921;BME280;63483;47.384;8.860;2022-09-20T15:50:24;95022.31;;;12.07;35.95
74921;BME280;63483;47.384;8.860;2022-09-20T15:52:50;95020.69;;;12.06;35.35
74921;BME280;63483;47.384;8.860;2022-09-20T15:55:19;95016.66;;;11.81;35.71
74921;BME280;63483;47.384;8.860;2022-09-20T15:57:46;95011.91;;;11.61;36.54
74921;BME280;63483;47.384;8.860;2022-09-20T16:00:13;95009.69;;;11.50;35.94
74921;BME280;63483;47.384;8.860;2022-09-20T16:02:39;95013.59;;;11.54;36.03
74921;BME280;63483;47.384;8.860;2022-09-20T16:05:05;95015.88;;;11.57;36.30
74921;BME280;63483;47.384;8.860;2022-09-20T16:07:30;95015.22;;;11.55;36.19
74921;BME280;63483;47.384;8.860;2022-09-20T16:09:56;95018.66;;;11.55;36.61
74921;BME280;63483;47.384;8.860;2022-09-20T16:12:22;95015.38;;;11.53;36.98
74921;BME280;63483;47.384;8.860;2022-09-20T16:14:48;95016.09;;;11.47;37.25
74921;BME280;63483;47.384;8.860;2022-09-20T16:17:14;95018.19;;;11.52;37.27
74921;BME280;63483;47.384;8.860;2022-09-20T16:19:39;95021.47;;;11.54;37.71
74921;BME280;63483;47.384;8.860;2022-09-20T16:22:06;95026.34;;;11.57;37.72
74921;BME280;63483;47.384;8.860;2022-09-20T16:24:33;95027.25;;;11.49;37.78
74921;BME280;63483;47.384;8.860;2022-09-20T16:27:01;95029.13;;;11.40;38.49
74921;BME280;63483;47.384;8.860;2022-09-20T16:29:28;95025.44;;;11.50;38.15
74921;BME280;63483;47.384;8.860;2022-09-20T16:31:55;95028.31;;;11.55;38.55
74921;BME280;63483;47.384;8.860;2022-09-20T16:34:32;95036.16;;;11.63;38.32
74921;BME280;63483;47.384;8.860;2022-09-20T16:37:19;95028.31;;;11.55;38.43
74921;BME280;63483;47.384;8.860;2022-09-20T16:39:44;95032.09;;;11.37;39.28
74921;BME280;63483;47.384;8.860;2022-09-20T16:42:10;95028.06;;;11.50;39.26
74921;BME280;63483;47.384;8.860;2022-09-20T16:44:38;95031.47;;;11.50;38.98
74921;BME280;63483;47.384;8.860;2022-09-20T16:47:06;95032.94;;;11.53;38.96
74921;BME280;63483;47.384;8.860;2022-09-20T16:49:33;95033.94;;;11.52;39.34
74921;BME280;63483;47.384;8.860;2022-09-20T16:51:59;95035.28;;;11.48;39.21
74921;BME280;63483;47.384;8.860;2022-09-20T16:54:24;95033.03;;;11.45;39.12
74921;BME280;63483;47.384;8.860;2022-09-20T16:56:50;95044.16;;;11.47;39.15
74921;BME280;63483;47.384;8.860;2022-09-20T16:59:19;95039.88;;;11.46;39.23
74921;BME280;63483;47.384;8.860;2022-09-20T17:01:46;95041.91;;;11.35;39.50
74921;BME280;63483;47.384;8.860;2022-09-20T17:04:12;95039.44;;;11.42;39.42
74921;BME280;63483;47.384;8.860;2022-09-20T17:06:39;95041.22;;;11.41;39.28
74921;BME280;63483;47.384;8.860;2022-09-20T17:09:06;95043.63;;;11.51;38.50
74921;BME280;63483;47.384;8.860;2022-09-20T17:11:34;95045.97;;;11.46;39.13
74921;BME280;63483;47.384;8.860;2022-09-20T17:14:01;95050.19;;;11.47;40.35
74921;BME280;63483;47.384;8.860;2022-09-20T17:16:29;95046.25;;;11.51;39.81
74921;BME280;63483;47.384;8.860;2022-09-20T17:18:57;95050.16;;;11.55;39.79
74921;BME280;63483;47.384;8.860;2022-09-20T17:21:24;95056.84;;;11.58;40.38
74921;BME280;63483;47.384;8.860;2022-09-20T17:23:52;95061.09;;;11.59;40.41
74921;BME280;63483;47.384;8.860;2022-09-20T17:26:25;95062.72;;;11.60;39.47
74921;BME280;63483;47.384;8.860;2022-09-20T17:28:53;95066.34;;;11.59;40.77
74921;BME280;63483;47.384;8.860;2022-09-20T17:31:22;95073.22;;;11.60;40.27
74921;BME280;63483;47.384;8.860;2022-09-20T17:33:48;95074.88;;;11.61;40.47
74921;BME280;63483;47.384;8.860;2022-09-20T17:36:16;95076.19;;;11.57;40.54
74921;BME280;63483;47.384;8.860;2022-09-20T17:38:46;95077.19;;;11.56;40.51
74921;BME280;63483;47.384;8.860;2022-09-20T17:41:16;95077.00;;;11.57;40.56